Time;durP1;ratioP1;P1;durP2;ratioP2;P2;SDS_P1;SDS_P2;PMS_P1;PMS_P2;Temp;Humidity;BMP_temperature;BMP_pressure;BME280_temperature;BME280_humidity;BME280_pressure;Samples;Min_cycle;Max_cycle;Signal;HPM_P1;HPM_P2
2021/12/06 00:00:30;;;;;;;6.97;2.03;;;23.10;99.90;;;;;;5071659;28;20180;-68
2021/12/06 00:03:01;;;;;;;8.00;2.00;;;22.40;99.90;;;;;;5071669;28;20265;-67
2021/12/06 00:05:29;;;;;;;11.00;3.03;;;22.50;99.90;;;;;;5070502;28;20241;-68
2021/12/06 00:07:57;;;;;;;9.60;1.70;;;22.50;99.90;;;;;;5071306;28;20203;-68
2021/12/06 00:10:25;;;;;;;6.13;1.57;;;22.20;99.90;;;;;;5071132;28;20184;-68
2021/12/06 00:12:53;;;;;;;9.40;1.43;;;22.20;99.90;;;;;;5071351;28;20172;-68
2021/12/06 00:15:21;;;;;;;4.37;1.57;;;22.20;99.90;;;;;;5070897;28;20588;-68
2021/12/06 00:17:48;;;;;;;7.90;1.47;;;21.90;99.90;;;;;;5071063;28;20267;-68
2021/12/06 00:20:17;;;;;;;10.97;1.77;;;21.80;99.90;;;;;;5071420;28;20175;-67
2021/12/06 00:22:44;;;;;;;7.97;1.30;;;21.60;99.90;;;;;;5071578;28;20173;-68
2021/12/06 00:25:14;;;;;;;9.80;2.03;;;21.40;99.90;;;;;;5071099;28;20223;-68
2021/12/06 00:27:42;;;;;;;7.63;1.53;;;21.40;99.90;;;;;;5071316;28;20216;-67
2021/12/06 00:30:15;;;;;;;9.33;2.17;;;21.60;99.90;;;;;;5071298;28;20205;-68
2021/12/06 00:32:45;;;;;;;8.83;1.83;;;21.90;99.90;;;;;;5071234;28;20271;-67
2021/12/06 00:35:19;;;;;;;9.87;1.83;;;21.90;99.90;;;;;;5072841;28;20186;-69
2021/12/06 00:37:58;;;;;;;7.90;1.60;;;22.10;99.90;;;;;;5075383;28;20214;-67
2021/12/06 00:40:31;;;;;;;5.70;1.20;;;22.20;99.90;;;;;;5075275;28;20188;-68
2021/12/06 00:43:00;;;;;;;10.37;1.60;;;22.00;99.90;;;;;;5075288;28;20240;-67
2021/12/06 00:45:28;;;;;;;7.77;1.80;;;22.90;99.90;;;;;;5075379;28;20188;-69
2021/12/06 00:47:56;;;;;;;5.23;1.47;;;23.90;99.90;;;;;;5073540;28;20220;-68
2021/12/06 00:50:26;;;;;;;8.33;1.40;;;24.10;99.90;;;;;;5074453;28;20200;-69
2021/12/06 00:52:54;;;;;;;7.17;1.73;;;23.70;99.90;;;;;;5074478;28;20198;-68
2021/12/06 00:55:23;;;;;;;6.37;1.47;;;22.70;99.90;;;;;;5074931;28;20630;-68
2021/12/06 00:57:53;;;;;;;5.73;1.63;;;22.50;99.90;;;;;;5074776;28;20188;-69
2021/12/06 01:00:39;;;;;;;4.57;1.23;;;22.30;99.90;;;;;;5075066;28;20180;-69
2021/12/06 01:03:14;;;;;;;5.57;1.50;;;22.00;99.90;;;;;;5074906;28;20646;-70
2021/12/06 01:05:42;;;;;;;5.70;1.63;;;21.90;99.90;;;;;;5074718;28;20237;-68
2021/12/06 01:08:10;;;;;;;8.87;1.70;;;21.50;99.90;;;;;;5074750;28;20231;-69
2021/12/06 01:10:40;;;;;;;5.90;1.90;;;21.50;99.90;;;;;;5074679;28;20192;-68
2021/12/06 01:13:08;;;;;;;6.47;1.23;;;21.30;99.90;;;;;;5074320;28;20211;-68
2021/12/06 01:15:38;;;;;;;11.13;2.40;;;21.30;99.90;;;;;;5073346;28;20184;-68
2021/12/06 01:18:08;;;;;;;8.10;1.90;;;21.40;99.90;;;;;;5074631;28;20188;-70
2021/12/06 01:20:48;;;;;;;11.87;1.70;;;21.40;99.90;;;;;;5074374;28;20184;-69
2021/12/06 01:23:19;;;;;;;6.37;1.50;;;21.50;99.90;;;;;;5073268;28;20190;-69
2021/12/06 01:28:35;;;;;;;8.27;1.80;;;21.40;99.90;;;;;;5071234;28;20219;-71
2021/12/06 01:31:13;;;;;;;10.73;1.60;;;21.30;99.90;;;;;;5072262;28;20211;-68
2021/12/06 01:34:05;;;;;;;9.03;1.73;;;21.40;99.90;;;;;;5072225;28;20180;-67
2021/12/06 01:39:19;;;;;;;9.23;1.60;;;21.80;99.90;;;;;;5074729;28;20938;-68
2021/12/06 01:41:50;;;;;;;8.93;1.80;;;21.90;99.90;;;;;;5073799;28;20271;-68
2021/12/06 01:44:22;;;;;;;4.70;1.90;;;22.20;99.90;;;;;;5073881;28;20222;-68
2021/12/06 01:46:58;;;;;;;13.17;2.50;;;22.50;99.90;;;;;;5072250;28;20231;-68
2021/12/06 01:49:28;;;;;;;9.37;1.70;;;22.70;99.90;;;;;;5073836;28;20682;-68
2021/12/06 01:51:58;;;;;;;9.93;1.93;;;22.80;99.90;;;;;;5073003;28;20570;-68
2021/12/06 01:54:26;;;;;;;11.00;1.80;;;23.00;99.90;;;;;;5072216;28;20724;-67
2021/12/06 01:56:54;;;;;;;9.43;2.20;;;23.00;99.90;;;;;;5072184;28;20202;-68
2021/12/06 01:59:23;;;;;;;3.53;1.60;;;22.80;99.90;;;;;;5073095;28;20172;-68
2021/12/06 02:01:53;;;;;;;6.67;1.50;;;22.90;99.90;;;;;;5073382;28;20273;-67
2021/12/06 02:04:21;;;;;;;12.27;1.73;;;23.00;99.90;;;;;;5072876;28;20651;-68
2021/12/06 02:06:49;;;;;;;11.40;1.73;;;23.10;99.90;;;;;;5073383;28;20600;-68
2021/12/06 02:09:19;;;;;;;6.57;1.43;;;23.10;99.90;;;;;;5072997;28;20248;-68
2021/12/06 02:11:47;;;;;;;12.10;2.30;;;22.90;99.90;;;;;;5073729;28;20697;-68
2021/12/06 02:14:25;;;;;;;6.80;1.70;;;23.00;99.90;;;;;;5073670;28;20176;-69
2021/12/06 02:17:09;;;;;;;8.97;1.80;;;22.90;99.90;;;;;;5073087;28;20312;-68
2021/12/06 02:19:42;;;;;;;5.47;2.30;;;22.70;99.90;;;;;;5072451;28;20183;-68
2021/12/06 02:22:14;;;;;;;11.57;1.77;;;22.60;99.90;;;;;;5073394;28;20204;-67
2021/12/06 02:24:42;;;;;;;10.60;1.90;;;22.40;99.90;;;;;;5072982;28;20180;-68
2021/12/06 02:27:12;;;;;;;10.00;1.83;;;22.40;99.90;;;;;;5073051;28;20307;-69
2021/12/06 02:29:41;;;;;;;5.93;1.50;;;22.30;99.90;;;;;;5073472;28;20168;-69
2021/12/06 02:32:12;;;;;;;8.33;1.73;;;22.10;99.90;;;;;;5073124;28;20192;-68
2021/12/06 02:34:42;;;;;;;9.57;1.97;;;22.20;99.90;;;;;;5072886;28;20248;-69
2021/12/06 02:37:11;;;;;;;9.50;2.10;;;22.20;99.90;;;;;;5072638;28;20177;-68
2021/12/06 02:39:39;;;;;;;7.97;2.10;;;22.20;99.90;;;;;;5073226;28;20193;-68
2021/12/06 02:42:15;;;;;;;6.50;1.63;;;22.10;99.90;;;;;;5073300;28;20175;-68
2021/12/06 02:44:44;;;;;;;7.60;1.93;;;22.10;99.90;;;;;;5071920;28;20270;-68
2021/12/06 02:47:13;;;;;;;7.63;1.80;;;22.10;99.90;;;;;;5072564;28;20214;-68
2021/12/06 02:49:41;;;;;;;9.40;1.70;;;22.10;99.90;;;;;;5069997;28;20188;-67
2021/12/06 02:52:11;;;;;;;7.33;1.77;;;22.10;99.90;;;;;;5072577;28;20401;-67
2021/12/06 02:54:41;;;;;;;7.70;1.70;;;21.90;99.90;;;;;;5072265;28;20180;-68
2021/12/06 02:59:38;;;;;;;7.63;1.70;;;21.90;99.90;;;;;;5072740;28;20237;-67
2021/12/06 03:02:12;;;;;;;8.00;1.83;;;21.90;99.90;;;;;;5072731;28;20638;-68
2021/12/06 03:04:41;;;;;;;9.60;1.87;;;21.80;99.90;;;;;;5071300;28;20232;-66
2021/12/06 03:07:11;;;;;;;6.80;1.80;;;21.80;99.90;;;;;;5072549;28;20270;-67
2021/12/06 03:09:40;;;;;;;13.43;2.00;;;21.80;99.90;;;;;;5072103;28;20172;-67
2021/12/06 03:12:18;;;;;;;7.63;1.60;;;21.60;99.90;;;;;;5072570;28;20176;-68
2021/12/06 03:14:53;;;;;;;7.07;1.47;;;21.60;99.90;;;;;;5070833;28;20184;-68
2021/12/06 03:17:23;;;;;;;9.10;2.07;;;21.50;99.90;;;;;;5072421;28;20179;-67
2021/12/06 03:19:51;;;;;;;11.70;2.50;;;21.50;99.90;;;;;;5072243;28;20176;-67
2021/12/06 03:22:19;;;;;;;9.53;2.20;;;21.60;99.90;;;;;;5071878;28;20254;-67
2021/12/06 03:24:47;;;;;;;11.37;2.17;;;21.60;99.90;;;;;;5071957;28;20176;-67
2021/12/06 03:27:16;;;;;;;11.17;1.50;;;21.60;99.90;;;;;;5071830;28;20214;-67
2021/12/06 03:29:45;;;;;;;10.83;2.57;;;21.60;99.90;;;;;;5072207;28;20637;-67
2021/12/06 03:32:14;;;;;;;20.23;5.80;;;21.50;99.90;;;;;;5071924;28;20236;-68
2021/12/06 03:34:42;;;;;;;13.70;3.13;;;21.50;99.90;;;;;;5070377;28;20186;-68
2021/12/06 03:37:10;;;;;;;12.20;2.27;;;21.50;99.90;;;;;;5071544;28;20179;-68
2021/12/06 03:39:44;;;;;;;12.63;1.90;;;21.50;99.90;;;;;;5072037;28;20211;-68
2021/12/06 03:42:15;;;;;;;29.93;17.10;;;21.50;99.90;;;;;;5070821;28;20263;-68
2021/12/06 03:44:43;;;;;;;35.73;16.47;;;21.60;99.90;;;;;;5070231;28;20536;-69
2021/12/06 03:47:23;;;;;;;11.73;2.20;;;21.40;99.90;;;;;;5071096;28;20288;-68
2021/12/06 03:49:52;;;;;;;26.63;15.37;;;21.30;99.90;;;;;;5071941;28;20180;-67
2021/12/06 03:52:21;;;;;;;13.67;5.33;;;21.30;99.90;;;;;;5071110;28;20194;-68
2021/12/06 03:54:49;;;;;;;29.57;12.50;;;21.30;99.90;;;;;;5070026;28;20181;-69
2021/12/06 03:57:18;;;;;;;23.43;10.97;;;21.30;99.90;;;;;;5070681;28;20175;-67
2021/12/06 03:59:47;;;;;;;28.90;17.37;;;21.50;99.90;;;;;;5069389;28;20304;-66
2021/12/06 04:02:15;;;;;;;11.33;3.23;;;21.60;99.90;;;;;;5070791;28;20236;-67
2021/12/06 04:04:44;;;;;;;14.43;4.30;;;21.60;99.90;;;;;;5070267;28;20232;-67
2021/12/06 04:07:12;;;;;;;8.27;2.43;;;21.60;99.90;;;;;;5071298;28;20215;-67
2021/12/06 04:09:39;;;;;;;12.40;2.10;;;21.50;99.90;;;;;;5070326;28;20215;-66
2021/12/06 04:12:10;;;;;;;11.03;2.47;;;21.60;99.90;;;;;;5071820;28;20539;-67
2021/12/06 04:14:40;;;;;;;27.73;10.67;;;21.70;99.90;;;;;;5071811;28;20252;-68
2021/12/06 04:17:09;;;;;;;14.93;6.47;;;21.80;99.90;;;;;;5065130;28;20192;-67
2021/12/06 04:19:37;;;;;;;21.87;9.93;;;21.60;99.90;;;;;;5065578;28;20191;-68
2021/12/06 04:22:05;;;;;;;118.93;69.53;;;21.60;99.90;;;;;;5071035;28;20172;-67
2021/12/06 04:24:33;;;;;;;61.43;36.33;;;21.40;99.90;;;;;;5071258;28;20521;-68
2021/12/06 04:27:11;;;;;;;152.97;96.53;;;21.40;99.90;;;;;;5071240;28;20214;-69
2021/12/06 04:29:40;;;;;;;10.23;4.57;;;21.30;99.90;;;;;;5071302;28;20183;-67
2021/12/06 04:32:08;;;;;;;27.70;15.17;;;21.30;99.90;;;;;;5071116;28;20187;-67
2021/12/06 04:34:36;;;;;;;9.40;2.80;;;21.40;99.90;;;;;;5071449;28;20184;-66
2021/12/06 04:37:04;;;;;;;11.57;2.57;;;21.40;99.90;;;;;;5070812;28;21927;-67
2021/12/06 04:39:32;;;;;;;8.03;1.80;;;21.30;99.90;;;;;;5071186;28;20180;-68
2021/12/06 04:42:00;;;;;;;11.50;2.23;;;21.20;99.90;;;;;;5071295;28;20188;-68
2021/12/06 04:44:28;;;;;;;11.83;2.10;;;21.20;99.90;;;;;;5070757;28;20319;-68
2021/12/06 04:46:56;;;;;;;7.80;1.87;;;21.10;99.90;;;;;;5069917;28;20750;-68
2021/12/06 04:49:26;;;;;;;7.50;1.93;;;21.10;99.90;;;;;;5070753;28;20180;-68
2021/12/06 04:51:55;;;;;;;6.67;1.87;;;21.00;99.90;;;;;;5068482;28;20709;-68
2021/12/06 04:54:28;;;;;;;9.00;2.70;;;21.00;99.90;;;;;;5070533;28;20184;-66
2021/12/06 04:57:10;;;;;;;7.47;1.70;;;21.00;99.90;;;;;;5070121;28;20223;-67
2021/12/06 04:59:45;;;;;;;6.07;1.80;;;21.10;99.90;;;;;;5071041;28;20293;-67
2021/12/06 05:02:22;;;;;;;8.90;1.70;;;21.20;99.90;;;;;;5070689;28;20720;-67
2021/12/06 05:04:53;;;;;;;9.07;1.80;;;21.40;99.90;;;;;;5070006;28;20304;-68
2021/12/06 05:07:33;;;;;;;8.57;1.83;;;21.50;99.90;;;;;;5070030;28;20212;-66
2021/12/06 05:10:00;;;;;;;9.00;2.33;;;21.30;99.90;;;;;;5071147;28;20958;-67
2021/12/06 05:12:30;;;;;;;9.23;1.63;;;21.40;99.90;;;;;;5070893;28;20240;-68
2021/12/06 05:14:59;;;;;;;12.70;2.10;;;21.30;99.90;;;;;;5072679;28;20184;-65
2021/12/06 05:17:29;;;;;;;6.10;1.60;;;21.30;99.90;;;;;;5070094;28;20257;-68
2021/12/06 05:19:56;;;;;;;8.97;1.83;;;21.40;99.90;;;;;;5070660;28;20185;-68
2021/12/06 05:22:25;;;;;;;7.20;1.60;;;21.30;99.90;;;;;;5074371;28;20268;-67
2021/12/06 05:24:53;;;;;;;9.57;1.67;;;21.30;99.90;;;;;;5074356;28;20204;-67
2021/12/06 05:27:27;;;;;;;6.63;1.97;;;21.30;99.90;;;;;;5074360;28;20203;-68
2021/12/06 05:29:59;;;;;;;7.93;1.80;;;21.40;99.90;;;;;;5074656;28;20179;-68
2021/12/06 05:32:31;;;;;;;11.43;4.00;;;21.30;99.90;;;;;;5073145;28;20224;-67
2021/12/06 05:35:07;;;;;;;8.23;2.10;;;21.20;99.90;;;;;;5073069;28;20192;-67
2021/12/06 05:37:42;;;;;;;7.33;1.67;;;21.00;99.90;;;;;;5074283;28;20224;-68
2021/12/06 05:40:15;;;;;;;9.30;2.07;;;21.00;99.90;;;;;;5074533;28;20185;-68
2021/12/06 05:42:43;;;;;;;8.63;1.47;;;21.10;99.90;;;;;;5074322;28;20182;-68
2021/12/06 05:45:13;;;;;;;7.83;2.30;;;21.00;99.90;;;;;;5074139;28;20169;-67
2021/12/06 05:47:41;;;;;;;5.90;1.70;;;21.00;99.90;;;;;;5073916;28;20688;-68
2021/12/06 05:50:09;;;;;;;10.43;1.63;;;21.00;99.90;;;;;;5073941;28;20243;-69
2021/12/06 05:52:37;;;;;;;9.57;1.90;;;21.10;99.90;;;;;;5074146;28;20175;-68
2021/12/06 05:55:07;;;;;;;7.13;1.47;;;21.10;99.90;;;;;;5073936;28;20206;-68
2021/12/06 05:57:37;;;;;;;9.97;1.40;;;21.00;99.90;;;;;;5074073;28;20614;-68
2021/12/06 06:00:11;;;;;;;7.00;2.77;;;20.90;99.90;;;;;;5074058;28;20176;-68
2021/12/06 06:02:39;;;;;;;8.93;1.70;;;20.90;99.90;;;;;;5073916;28;20194;-68
2021/12/06 06:05:08;;;;;;;7.17;1.77;;;20.90;99.90;;;;;;5073550;28;20527;-69
2021/12/06 06:07:35;;;;;;;7.40;2.17;;;20.90;99.90;;;;;;5073689;28;20299;-67
2021/12/06 06:10:05;;;;;;;7.40;1.80;;;20.90;99.90;;;;;;5072846;28;20590;-66
2021/12/06 06:12:32;;;;;;;6.20;1.80;;;20.90;99.90;;;;;;5073708;28;20177;-67
2021/12/06 06:15:00;;;;;;;7.57;1.63;;;20.90;99.90;;;;;;5073668;28;20191;-67
2021/12/06 06:17:32;;;;;;;7.57;2.03;;;20.90;99.90;;;;;;5073068;28;20180;-68
2021/12/06 06:20:00;;;;;;;11.33;2.03;;;20.90;99.90;;;;;;5072722;28;20188;-66
2021/12/06 06:22:28;;;;;;;7.70;2.20;;;21.00;99.90;;;;;;5073643;28;20714;-67
2021/12/06 06:24:55;;;;;;;6.03;2.20;;;20.90;99.90;;;;;;5073363;28;20676;-68
2021/12/06 06:27:23;;;;;;;5.00;2.57;;;20.90;99.90;;;;;;5073265;28;21007;-68
2021/12/06 06:29:51;;;;;;;9.80;2.23;;;20.80;99.90;;;;;;5073211;28;20192;-67
2021/12/06 06:32:19;;;;;;;11.97;2.40;;;20.90;99.90;;;;;;5072875;28;20645;-68
2021/12/06 06:34:46;;;;;;;9.17;1.97;;;21.00;99.90;;;;;;5073391;28;20653;-67
2021/12/06 06:37:14;;;;;;;12.80;2.60;;;20.90;99.90;;;;;;5073132;28;20218;-67
2021/12/06 06:39:42;;;;;;;10.60;2.87;;;20.90;99.90;;;;;;5071849;28;20188;-67
2021/12/06 06:42:10;;;;;;;10.27;2.00;;;20.90;99.90;;;;;;5073108;28;20181;-67
2021/12/06 06:44:38;;;;;;;20.23;6.03;;;21.10;99.90;;;;;;5073179;28;20184;-67
2021/12/06 06:47:05;;;;;;;10.63;3.17;;;21.20;99.90;;;;;;5072541;28;20213;-67
2021/12/06 06:49:33;;;;;;;9.20;2.00;;;21.20;99.90;;;;;;5072721;28;20248;-68
2021/12/06 06:52:02;;;;;;;5.87;1.97;;;21.20;99.90;;;;;;5072996;28;20541;-66
2021/12/06 06:54:30;;;;;;;7.83;1.77;;;21.10;99.90;;;;;;5071615;28;20193;-71
2021/12/06 06:56:57;;;;;;;8.17;2.30;;;21.10;99.90;;;;;;5072345;28;20185;-68
2021/12/06 06:59:25;;;;;;;4.00;1.87;;;21.20;99.90;;;;;;5072764;28;20192;-68
2021/12/06 07:01:53;;;;;;;8.70;2.13;;;21.20;99.90;;;;;;5072806;28;20182;-68
2021/12/06 07:04:21;;;;;;;8.67;2.60;;;21.20;99.90;;;;;;5072694;28;20545;-68
2021/12/06 07:06:49;;;;;;;9.63;2.00;;;21.20;99.90;;;;;;5072237;28;20252;-68
2021/12/06 07:09:17;;;;;;;10.57;1.93;;;21.20;99.90;;;;;;5071956;28;20176;-67
2021/12/06 07:11:46;;;;;;;9.10;1.77;;;21.20;99.90;;;;;;5072296;28;20657;-67
2021/12/06 07:14:17;;;;;;;9.13;2.00;;;21.10;99.90;;;;;;5072026;28;20191;-67
2021/12/06 07:16:48;;;;;;;5.83;1.47;;;21.10;99.90;;;;;;5072364;28;20668;-68
2021/12/06 07:19:16;;;;;;;7.83;1.93;;;21.00;99.90;;;;;;5072330;28;20194;-67
2021/12/06 07:21:44;;;;;;;8.83;1.93;;;20.90;99.90;;;;;;5072353;28;20731;-67
2021/12/06 07:24:12;;;;;;;12.23;2.30;;;20.90;99.90;;;;;;5070954;28;20599;-67
2021/12/06 07:26:40;;;;;;;6.10;1.80;;;20.90;99.90;;;;;;5071983;28;20198;-67
2021/12/06 07:29:08;;;;;;;6.00;1.80;;;20.90;99.90;;;;;;5072220;28;20189;-69
2021/12/06 07:31:36;;;;;;;6.77;2.33;;;20.80;99.90;;;;;;5071999;28;20626;-68
2021/12/06 07:34:04;;;;;;;15.07;6.87;;;20.80;99.90;;;;;;5072003;28;20250;-69
2021/12/06 07:36:32;;;;;;;8.70;2.53;;;20.80;99.90;;;;;;5070598;28;20556;-67
2021/12/06 07:38:59;;;;;;;9.63;2.03;;;20.70;99.90;;;;;;5070057;28;20200;-68
2021/12/06 07:41:28;;;;;;;6.27;2.30;;;20.70;99.90;;;;;;5072105;28;20214;-68
2021/12/06 07:43:58;;;;;;;8.40;1.67;;;20.70;99.90;;;;;;5071250;28;20648;-67
2021/12/06 07:46:26;;;;;;;4.60;1.50;;;20.70;99.90;;;;;;5071596;28;20184;-66
2021/12/06 07:48:54;;;;;;;3.70;1.77;;;20.80;99.90;;;;;;5071523;28;20216;-67
2021/12/06 07:51:24;;;;;;;6.90;1.70;;;20.80;99.90;;;;;;5071957;28;20674;-67
2021/12/06 07:53:52;;;;;;;6.97;1.60;;;20.80;99.90;;;;;;5071653;28;20613;-68
2021/12/06 07:56:21;;;;;;;6.67;1.70;;;20.80;99.90;;;;;;5071730;28;20890;-67
2021/12/06 07:58:49;;;;;;;11.10;2.20;;;20.80;99.90;;;;;;5071712;28;20175;-65
2021/12/06 08:01:17;;;;;;;8.10;1.73;;;20.80;99.90;;;;;;5051889;28;20194;-66
2021/12/06 08:03:45;;;;;;;10.27;2.13;;;20.70;99.90;;;;;;5060193;28;20191;-69
2021/12/06 08:06:13;;;;;;;8.63;2.20;;;20.70;99.90;;;;;;5071520;28;20756;-67
2021/12/06 08:08:43;;;;;;;7.47;1.83;;;20.60;99.90;;;;;;5071200;28;20240;-68
2021/12/06 08:11:14;;;;;;;7.50;1.73;;;20.60;99.90;;;;;;5071598;28;20194;-67
2021/12/06 08:13:44;;;;;;;6.83;1.77;;;20.60;99.90;;;;;;5070055;28;20200;-67
2021/12/06 08:16:18;;;;;;;8.93;1.50;;;20.50;99.90;;;;;;5071381;28;20788;-67
2021/12/06 08:18:46;;;;;;;8.43;1.87;;;20.50;99.90;;;;;;5071524;28;20197;-67
2021/12/06 08:21:16;;;;;;;10.47;2.03;;;20.50;99.90;;;;;;5082258;28;20163;-67
2021/12/06 08:23:45;;;;;;;12.30;2.00;;;20.50;99.90;;;;;;5096012;28;20244;-67
2021/12/06 08:26:13;;;;;;;7.60;1.57;;;20.50;99.90;;;;;;5085645;28;20160;-68
2021/12/06 08:28:42;;;;;;;6.77;1.53;;;20.40;99.90;;;;;;5089055;28;20360;-69
2021/12/06 08:31:13;;;;;;;10.43;1.90;;;20.30;99.90;;;;;;5092133;28;20202;-68
2021/12/06 08:33:42;;;;;;;11.63;2.07;;;20.40;99.90;;;;;;5071149;28;20190;-68
2021/12/06 08:36:11;;;;;;;7.20;1.80;;;20.30;99.90;;;;;;5070980;28;20180;-68
2021/12/06 08:38:40;;;;;;;10.60;1.70;;;20.30;99.90;;;;;;5051110;28;20646;-67
2021/12/06 08:41:12;;;;;;;5.87;1.80;;;20.30;99.90;;;;;;5049867;28;20192;-68
2021/12/06 08:43:41;;;;;;;9.77;1.50;;;20.20;99.90;;;;;;5051204;28;20278;-67
2021/12/06 08:46:16;;;;;;;3.77;1.47;;;20.20;99.90;;;;;;5051095;28;20213;-69
2021/12/06 08:48:45;;;;;;;9.13;2.10;;;20.20;99.90;;;;;;5051176;28;20243;-68
2021/12/06 08:51:19;;;;;;;16.47;4.63;;;20.10;99.90;;;;;;5051217;28;20181;-67
2021/12/06 08:53:47;;;;;;;13.50;3.30;;;20.10;99.90;;;;;;5051233;28;20180;-68
2021/12/06 08:56:16;;;;;;;5.43;1.60;;;20.10;99.90;;;;;;5052708;28;20200;-68
2021/12/06 08:58:45;;;;;;;4.47;1.60;;;20.10;99.90;;;;;;5055175;28;20172;-67
2021/12/06 09:01:13;;;;;;;9.97;1.70;;;20.10;99.90;;;;;;5055147;28;20540;-67
2021/12/06 09:03:41;;;;;;;9.07;1.77;;;20.10;99.90;;;;;;5055031;28;20205;-67
2021/12/06 09:06:13;;;;;;;13.17;1.90;;;20.10;99.90;;;;;;5054835;28;20224;-68
2021/12/06 09:08:41;;;;;;;7.80;1.90;;;20.10;99.90;;;;;;5053846;28;20526;-67
2021/12/06 09:11:10;;;;;;;5.60;1.70;;;20.10;99.90;;;;;;5054841;28;20259;-68
2021/12/06 09:13:39;;;;;;;5.83;1.50;;;20.00;99.90;;;;;;5054948;28;20188;-68
2021/12/06 09:16:09;;;;;;;6.70;1.43;;;20.00;99.90;;;;;;5054695;28;20191;-67
2021/12/06 09:18:39;;;;;;;6.57;1.90;;;20.00;99.90;;;;;;5054712;28;20599;-67
2021/12/06 09:21:15;;;;;;;8.00;1.33;;;20.00;99.90;;;;;;5054740;28;20607;-68
2021/12/06 09:23:44;;;;;;;8.00;1.40;;;20.00;99.90;;;;;;5053675;28;20187;-66
2021/12/06 09:26:12;;;;;;;4.83;1.40;;;20.00;99.90;;;;;;5054702;28;20185;-69
2021/12/06 09:28:40;;;;;;;7.33;1.50;;;19.90;99.90;;;;;;5054598;28;20214;-67
2021/12/06 09:31:09;;;;;;;7.70;1.60;;;19.90;99.90;;;;;;5054453;28;20529;-68
2021/12/06 09:33:39;;;;;;;9.17;1.63;;;19.90;99.90;;;;;;5054500;28;20254;-67
2021/12/06 09:36:09;;;;;;;5.43;1.77;;;19.90;99.90;;;;;;5054465;28;20175;-68
2021/12/06 09:38:40;;;;;;;7.77;2.23;;;19.80;99.90;;;;;;5054671;28;20893;-68
2021/12/06 09:41:11;;;;;;;8.70;1.70;;;19.80;99.90;;;;;;5053263;28;20562;-67
2021/12/06 09:43:41;;;;;;;13.50;6.87;;;19.80;99.90;;;;;;5055280;28;20203;-66
2021/12/06 09:46:12;;;;;;;22.00;9.80;;;19.80;99.90;;;;;;5073926;28;20259;-70
2021/12/06 09:48:43;;;;;;;12.70;2.50;;;19.80;99.90;;;;;;5054481;28;20275;-67
2021/12/06 09:51:16;;;;;;;6.17;1.87;;;19.80;99.90;;;;;;5054369;28;20173;-68
2021/12/06 09:53:46;;;;;;;5.93;1.40;;;19.70;99.90;;;;;;5069182;28;20183;-69
2021/12/06 09:56:28;;;;;;;8.13;2.20;;;19.70;99.90;;;;;;5054097;28;20193;-68
2021/12/06 09:58:57;;;;;;;3.10;1.20;;;19.70;99.90;;;;;;5052983;28;20181;-67
2021/12/06 10:01:29;;;;;;;5.47;1.83;;;19.70;99.90;;;;;;5054155;28;20578;-68
2021/12/06 10:03:58;;;;;;;6.23;1.87;;;19.70;99.90;;;;;;5054166;28;20181;-68
2021/12/06 10:06:29;;;;;;;8.83;1.73;;;19.70;99.90;;;;;;5053686;28;20316;-67
2021/12/06 10:08:58;;;;;;;8.23;1.73;;;19.70;99.90;;;;;;5052893;28;20215;-67
2021/12/06 10:11:27;;;;;;;11.53;2.43;;;19.60;99.90;;;;;;5060698;28;20172;-69
2021/12/06 10:13:57;;;;;;;4.83;1.57;;;19.60;99.90;;;;;;5073925;28;20201;-71
2021/12/06 10:16:25;;;;;;;5.30;1.43;;;19.60;99.90;;;;;;5073320;28;20180;-68
2021/12/06 10:18:54;;;;;;;8.57;2.03;;;19.50;99.90;;;;;;5073425;28;20180;-70
2021/12/06 10:21:27;;;;;;;8.17;2.63;;;19.50;99.90;;;;;;5073879;28;20183;-69
2021/12/06 10:23:57;;;;;;;6.30;1.60;;;19.50;99.90;;;;;;5074765;28;20537;-69
2021/12/06 10:26:32;;;;;;;7.33;1.53;;;19.40;99.90;;;;;;5075198;28;20642;-69
2021/12/06 10:29:08;;;;;;;5.10;2.00;;;19.40;99.90;;;;;;5073440;28;20292;-68
2021/12/06 10:31:41;;;;;;;7.03;1.70;;;19.40;99.90;;;;;;5074432;28;20183;-68
2021/12/06 10:34:13;;;;;;;8.70;1.40;;;19.40;99.90;;;;;;5055223;28;20278;-68
2021/12/06 10:36:41;;;;;;;4.97;2.03;;;19.40;99.90;;;;;;5055025;28;20702;-68
2021/12/06 10:39:10;;;;;;;8.60;1.73;;;19.40;99.90;;;;;;5055066;28;20173;-67
2021/12/06 10:41:40;;;;;;;5.43;1.63;;;19.30;99.90;;;;;;5055142;28;20218;-68
2021/12/06 10:44:11;;;;;;;7.97;1.97;;;19.30;99.90;;;;;;5055696;28;20554;-69
2021/12/06 10:46:43;;;;;;;6.77;2.00;;;19.30;99.90;;;;;;5054912;28;20647;-68
2021/12/06 10:49:15;;;;;;;7.40;1.67;;;19.20;99.90;;;;;;5054863;28;20227;-69
2021/12/06 10:51:43;;;;;;;8.13;1.73;;;19.20;99.90;;;;;;5054751;28;20198;-68
2021/12/06 10:54:20;;;;;;;9.40;2.20;;;19.20;99.90;;;;;;5054785;28;20664;-68
2021/12/06 10:56:52;;;;;;;7.17;1.93;;;19.20;99.90;;;;;;5054718;28;20502;-69
2021/12/06 10:59:23;;;;;;;6.03;1.47;;;19.10;99.90;;;;;;5054667;28;20189;-68
2021/12/06 11:01:55;;;;;;;8.53;2.07;;;19.10;99.90;;;;;;5073278;28;20176;-67
2021/12/06 11:04:27;;;;;;;5.57;1.80;;;19.00;99.90;;;;;;5074572;28;20262;-68
2021/12/06 11:07:05;;;;;;;8.87;2.27;;;18.90;99.90;;;;;;5073774;28;20297;-68
2021/12/06 11:09:35;;;;;;;7.60;2.00;;;18.80;99.90;;;;;;5073211;28;20652;-69
2021/12/06 11:12:05;;;;;;;25.47;10.93;;;18.70;99.90;;;;;;5074522;28;20310;-68
2021/12/06 11:14:43;;;;;;;12.50;3.70;;;18.70;99.90;;;;;;5074240;28;20214;-69
2021/12/06 11:17:18;;;;;;;6.20;2.40;;;18.60;99.90;;;;;;5074451;28;20196;-69
2021/12/06 11:19:50;;;;;;;9.07;1.90;;;18.60;99.90;;;;;;5072824;28;20179;-69
2021/12/06 11:22:23;;;;;;;8.90;2.37;;;18.50;99.90;;;;;;5074071;28;20325;-68
2021/12/06 11:24:53;;;;;;;7.43;1.97;;;18.50;99.90;;;;;;5074217;28;20646;-68
2021/12/06 11:27:37;;;;;;;8.33;1.60;;;18.40;99.90;;;;;;5074125;28;20238;-68
2021/12/06 11:30:11;;;;;;;6.27;1.40;;;18.40;99.90;;;;;;5074015;28;20704;-68
2021/12/06 11:32:43;;;;;;;5.83;1.80;;;18.30;99.90;;;;;;5074066;28;20168;-67
2021/12/06 11:35:18;;;;;;;8.20;2.20;;;18.30;99.90;;;;;;5073894;28;20179;-69
2021/12/06 11:37:47;;;;;;;8.20;2.50;;;18.30;99.90;;;;;;5073855;28;20171;-68
2021/12/06 11:40:25;;;;;;;11.80;1.90;;;18.30;99.90;;;;;;5074023;28;20172;-68
2021/12/06 11:43:05;;;;;;;6.20;1.83;;;18.30;99.90;;;;;;5073887;28;20222;-69
2021/12/06 11:45:35;;;;;;;6.23;2.03;;;18.30;99.90;;;;;;5073837;28;20177;-68
2021/12/06 11:48:12;;;;;;;9.87;1.73;;;18.30;99.90;;;;;;5074274;28;20681;-68
2021/12/06 11:50:46;;;;;;;7.77;1.67;;;18.30;99.90;;;;;;5073826;28;20172;-69
2021/12/06 11:53:15;;;;;;;10.40;2.03;;;18.30;99.90;;;;;;5073654;28;20168;-69
2021/12/06 11:55:53;;;;;;;9.47;2.23;;;18.30;99.90;;;;;;5073486;28;20624;-68
2021/12/06 11:58:23;;;;;;;10.87;2.50;;;18.40;99.90;;;;;;5073401;28;20270;-69
2021/12/06 12:01:26;;;;;;;8.33;2.67;;;18.40;99.90;;;;;;5073678;28;20242;-69
2021/12/06 12:04:01;;;;;;;12.00;2.13;;;18.40;99.90;;;;;;5073576;28;20172;-69
2021/12/06 12:06:35;;;;;;;8.50;2.43;;;18.40;99.90;;;;;;5073463;28;20223;-69
2021/12/06 12:09:19;;;;;;;8.63;1.87;;;18.50;99.90;;;;;;5073571;28;20207;-67
2021/12/06 12:12:22;;;;;;;7.27;1.60;;;18.50;99.90;;;;;;5073660;28;20180;-68
2021/12/06 12:14:57;;;;;;;7.00;2.30;;;18.40;99.90;;;;;;5069731;28;20198;-69
2021/12/06 12:17:28;;;;;;;6.37;2.13;;;18.40;99.90;;;;;;5072515;28;20187;-69
2021/12/06 12:19:58;;;;;;;11.23;2.83;;;18.40;99.90;;;;;;5072326;28;20201;-68
2021/12/06 12:22:27;;;;;;;10.00;2.13;;;18.40;99.90;;;;;;5073221;28;20179;-70
2021/12/06 12:25:03;;;;;;;4.97;2.00;;;18.30;99.90;;;;;;5073027;28;20176;-69
2021/12/06 12:27:43;;;;;;;5.60;1.53;;;18.30;99.90;;;;;;5073210;28;20203;-69
2021/12/06 12:30:11;;;;;;;6.50;1.70;;;18.30;99.90;;;;;;5072825;28;20206;-68
2021/12/06 12:32:39;;;;;;;9.30;2.33;;;18.30;99.90;;;;;;5073193;28;20674;-68
2021/12/06 12:35:14;;;;;;;8.90;2.17;;;18.30;99.90;;;;;;5073060;28;20218;-68
2021/12/06 12:37:44;;;;;;;11.10;2.30;;;18.30;99.90;;;;;;5073283;28;20180;-69
2021/12/06 12:40:14;;;;;;;11.43;2.57;;;18.40;99.90;;;;;;5072041;28;20188;-69
2021/12/06 12:43:01;;;;;;;9.63;2.00;;;18.40;99.90;;;;;;5073528;28;20700;-68
2021/12/06 12:45:46;;;;;;;10.83;2.70;;;18.40;99.90;;;;;;5073139;28;20201;-70
2021/12/06 12:48:16;;;;;;;10.43;2.23;;;18.50;99.90;;;;;;5073049;28;20235;-69
2021/12/06 12:51:01;;;;;;;9.47;2.23;;;18.50;99.90;;;;;;5072847;28;20188;-69
2021/12/06 12:54:02;;;;;;;8.00;2.40;;;18.60;99.90;;;;;;5073571;28;20172;-69
2021/12/06 12:56:49;;;;;;;9.90;2.30;;;18.60;99.90;;;;;;5072646;28;20527;-68
2021/12/06 12:59:29;;;;;;;5.57;1.97;;;18.60;99.90;;;;;;5073112;28;20604;-68
2021/12/06 13:02:26;;;;;;;7.67;2.20;;;18.60;99.90;;;;;;5072857;28;20176;-69
2021/12/06 13:05:00;;;;;;;8.47;1.90;;;18.60;99.90;;;;;;5072949;28;20280;-68
2021/12/06 13:07:34;;;;;;;8.43;2.30;;;18.50;99.90;;;;;;5073134;28;20204;-69
2021/12/06 13:10:32;;;;;;;6.07;2.10;;;18.50;99.90;;;;;;5073332;28;20321;-68